createdAt,value
2018-03-15T00:00:32.644Z,7.22
2018-03-15T00:06:33.618Z,6.96
2018-03-15T00:10:34.447Z,7.14
2018-03-15T00:12:35.178Z,6.61
2018-03-15T00:16:36.011Z,7.08
2018-03-15T00:22:36.711Z,7.12
2018-03-15T00:26:37.479Z,6.14
2018-03-15T00:32:38.184Z,6.92
2018-03-15T00:36:39.152Z,6.94
2018-03-15T00:43:40.500Z,7.46
2018-03-15T00:47:41.327Z,6.85
2018-03-15T00:53:42.173Z,6.91
2018-03-15T00:57:42.884Z,6.3
2018-03-15T01:03:43.726Z,6.49
2018-03-15T01:09:44.611Z,6.58
2018-03-15T01:13:45.449Z,6.61
2018-03-15T01:19:46.294Z,6.5
2018-03-15T01:23:47.108Z,6.04
2018-03-15T01:29:47.881Z,6.54
2018-03-15T01:35:48.675Z,6.31
2018-03-15T01:39:49.422Z,6.67
2018-03-15T01:45:50.285Z,7.07
2018-03-15T01:49:51.088Z,6.74
2018-03-15T01:55:51.891Z,6.25
2018-03-15T02:01:52.623Z,6.09
2018-03-15T02:05:53.465Z,5.85
2018-03-15T02:11:54.432Z,6.11
2018-03-15T02:15:55.231Z,5.8
2018-03-15T02:21:56.011Z,5.75
2018-03-15T02:27:56.730Z,5.83
2018-03-15T02:31:57.515Z,5.53
2018-03-15T02:37:58.212Z,6.61
2018-03-15T02:41:58.898Z,6.39
2018-03-15T02:47:59.689Z,6.02
2018-03-15T02:54:00.696Z,6.5
2018-03-15T02:58:01.397Z,5.9
2018-03-15T03:04:02.204Z,5.12
2018-03-15T03:08:02.930Z,5.83
2018-03-15T03:14:03.762Z,5.69
2018-03-15T03:20:04.567Z,6.32
2018-03-15T03:24:05.267Z,5.67
2018-03-15T03:30:06.136Z,5.71
2018-03-15T03:34:06.676Z,5.85
2018-03-15T03:40:07.509Z,5.41
2018-03-15T03:46:08.546Z,5.64
2018-03-15T03:50:09.299Z,5.45
2018-03-15T03:56:10.012Z,5.1
2018-03-15T04:00:11.125Z,4.77
2018-03-15T04:06:11.843Z,5.53
2018-03-15T04:12:12.593Z,5.88
2018-03-15T04:16:13.419Z,5.4
2018-03-15T04:22:14.153Z,6.22
2018-03-15T04:26:14.844Z,6.21
2018-03-15T04:32:15.618Z,6.26
2018-03-15T04:38:16.363Z,5.89
2018-03-15T04:42:17.200Z,6.26
2018-03-15T04:48:17.957Z,5.68
2018-03-15T04:52:18.804Z,5.27
2018-03-15T04:52:18.815Z,5.27
2018-03-15T04:58:19.603Z,5.74
2018-03-15T05:04:20.331Z,6.48
2018-03-15T05:08:21.270Z,6.16
2018-03-15T05:14:21.985Z,6.35
2018-03-15T05:18:22.752Z,6.37
2018-03-15T05:24:23.504Z,7.71
2018-03-15T05:30:24.549Z,6.8
2018-03-15T05:34:25.344Z,6.38
2018-03-15T05:40:26.123Z,5.91
2018-03-15T05:44:26.985Z,6.09
2018-03-15T05:50:28.020Z,7.29
2018-03-15T05:56:28.863Z,7.43
2018-03-15T06:00:29.642Z,7.15
2018-03-15T06:06:30.398Z,7.89
2018-03-15T06:10:31.213Z,8.04
2018-03-15T06:16:31.909Z,8.7
2018-03-15T06:22:32.675Z,7.86
2018-03-15T06:26:33.457Z,8.01
2018-03-15T06:32:34.293Z,7.58
2018-03-15T06:36:35.116Z,8.33
2018-03-15T06:42:35.835Z,9.23
2018-03-15T06:48:36.606Z,8.24
2018-03-15T06:52:37.466Z,7.85
2018-03-15T06:58:38.301Z,8.1
2018-03-15T07:02:38.980Z,8
2018-03-15T07:08:39.733Z,8.59
2018-03-15T07:14:40.482Z,9.46
2018-03-15T07:18:41.318Z,9.48
2018-03-15T07:24:42.229Z,9.21
2018-03-15T07:28:42.923Z,9.64
2018-03-15T07:34:43.805Z,8.97
2018-03-15T07:40:44.485Z,10.97
2018-03-15T07:44:45.191Z,10.31
2018-03-15T07:50:46.165Z,10.92
2018-03-15T07:54:47.092Z,11.87
2018-03-15T08:00:47.799Z,11.62
2018-03-15T08:06:48.556Z,12.8
2018-03-15T08:10:49.364Z,10.87
2018-03-15T08:16:50.148Z,12.58
2018-03-15T08:20:50.967Z,11.82
2018-03-15T08:22:51.717Z,12.53
2018-03-15T08:26:52.657Z,12.71
2018-03-15T08:32:53.401Z,11.93
2018-03-15T08:36:54.248Z,11.89
2018-03-15T08:42:55.065Z,12.57
2018-03-15T08:46:55.928Z,11.68
2018-03-15T08:52:56.613Z,12.25
2018-03-15T08:58:57.620Z,12.88
2018-03-15T09:02:58.403Z,12.16
2018-03-15T09:08:59.241Z,13.04
2018-03-15T09:13:00.016Z,12.6
2018-03-15T09:15:00.794Z,13.51
2018-03-15T09:19:01.815Z,12.19
2018-03-15T09:25:02.684Z,10.85
2018-03-15T09:29:03.380Z,8.49
2018-03-15T09:35:04.109Z,7.53
2018-03-15T09:39:04.862Z,6.6
2018-03-15T09:41:05.525Z,6.83
2018-03-15T09:45:06.829Z,7.35
2018-03-15T09:51:07.634Z,7.33
2018-03-15T09:55:08.554Z,7.16
2018-03-15T10:01:09.372Z,6.38
2018-03-15T10:05:10.273Z,6.68
2018-03-15T10:11:10.982Z,5.28
2018-03-15T10:17:11.848Z,5.31
2018-03-15T10:21:12.858Z,5.05
2018-03-15T10:27:14.489Z,4.97
2018-03-15T10:31:15.228Z,4.52
2018-03-15T10:37:16.089Z,5.7
2018-03-15T10:43:16.808Z,6.53
2018-03-15T10:47:17.828Z,6.39
2018-03-15T10:53:18.636Z,6.03
2018-03-15T10:57:19.939Z,6.17
2018-03-15T11:03:20.811Z,6.09
2018-03-15T11:09:22.618Z,6.44
2018-03-15T11:13:28.060Z,5.81
2018-03-15T11:19:29.063Z,6.92
2018-03-15T11:23:29.840Z,6.6
2018-03-15T11:29:30.540Z,6.29
2018-03-15T11:35:31.327Z,5.91
2018-03-15T11:39:32.167Z,6.24
2018-03-15T11:45:32.963Z,6.36
2018-03-15T11:49:33.733Z,5.88
2018-03-15T11:55:34.478Z,5.65
2018-03-15T12:01:35.251Z,6.67
2018-03-15T12:05:36.055Z,6.58
2018-03-15T12:11:36.826Z,6.84
2018-03-15T12:15:37.749Z,6.47
2018-03-15T12:21:38.641Z,6.38
2018-03-15T12:27:39.471Z,7.27
2018-03-15T12:31:40.547Z,6.56
2018-03-15T12:37:41.252Z,8.2
2018-03-15T12:41:42.034Z,6.41
2018-03-15T12:47:42.719Z,6.4
2018-03-15T12:53:43.510Z,6.24
2018-03-15T12:57:44.447Z,6.76
2018-03-15T13:03:52.025Z,6.02
2018-03-15T13:07:53.429Z,5.36
2018-03-15T13:13:54.336Z,6.18
2018-03-15T13:19:55.098Z,5.57
2018-03-15T13:23:55.848Z,5.48
2018-03-15T13:29:56.589Z,10.28
2018-03-15T13:33:57.378Z,9.37
2018-03-15T13:39:58.157Z,14.63
2018-03-15T13:45:59.536Z,20.69
2018-03-15T13:50:00.506Z,20.34
2018-03-15T13:56:01.200Z,21
2018-03-15T14:00:02.856Z,19.41
2018-03-15T14:06:03.570Z,21.83
2018-03-15T14:12:04.293Z,21.1
2018-03-15T14:16:07.186Z,22
2018-03-15T14:22:08.474Z,21.65
2018-03-15T14:26:09.364Z,21.36
2018-03-15T14:32:10.911Z,21.64
2018-03-15T14:38:11.687Z,23.23
2018-03-15T14:42:13.053Z,24.48
2018-03-15T14:48:18.441Z,22.52
2018-03-15T14:52:19.474Z,22.3
2018-03-15T14:58:20.344Z,22.27
2018-03-15T15:02:21.200Z,21.36
2018-03-15T15:04:21.955Z,21.83
2018-03-15T15:08:22.670Z,21.73
2018-03-15T15:14:23.363Z,23.41
2018-03-15T15:18:24.165Z,24.11
2018-03-15T15:24:24.921Z,21.79
2018-03-15T15:28:25.762Z,21.16
2018-03-15T15:30:26.939Z,24.23
2018-03-15T15:34:27.681Z,23.31
2018-03-15T15:40:28.512Z,24.65
2018-03-15T15:44:29.176Z,24.57
2018-03-15T15:50:29.890Z,21.3
2018-03-15T15:54:30.776Z,20.3
2018-03-15T15:56:31.393Z,21.94
2018-03-15T16:00:32.440Z,20.6
2018-03-15T16:06:33.215Z,12.08
2018-03-15T16:10:34.323Z,11.2
2018-03-15T16:16:35.061Z,6.76
2018-03-15T16:20:36.008Z,5.99
2018-03-15T16:22:36.817Z,6.73
2018-03-15T16:26:37.918Z,5.33
2018-03-15T16:32:38.827Z,4.51
2018-03-15T16:36:39.758Z,4.55
2018-03-15T16:42:40.588Z,5.12
2018-03-15T16:46:41.220Z,4.68
2018-03-15T16:48:42.338Z,4.86
2018-03-15T16:52:43.173Z,4.67
2018-03-15T16:58:44.045Z,5.36
2018-03-15T17:02:44.774Z,5.1
2018-03-15T17:08:45.678Z,5.58
2018-03-15T17:12:46.412Z,5.64
2018-03-15T17:14:47.110Z,5.67
2018-03-15T17:18:47.924Z,5.54
2018-03-15T17:24:48.794Z,5.5
2018-03-15T17:28:49.594Z,5.66
2018-03-15T17:34:50.310Z,6.06
2018-03-15T17:38:51.205Z,5.47
2018-03-15T17:40:52.037Z,5.79
2018-03-15T17:44:52.901Z,5.39
2018-03-15T17:50:54.341Z,6.01
2018-03-15T17:54:55.079Z,6.28
2018-03-15T18:00:55.915Z,5.93
2018-03-15T18:04:56.883Z,5.77
2018-03-15T18:06:57.630Z,6.22
2018-03-15T18:10:58.637Z,5.71
2018-03-15T18:16:59.439Z,5.9
2018-03-15T18:21:00.184Z,6.3
2018-03-15T18:27:01.047Z,5.69
2018-03-15T18:31:01.852Z,5.85
2018-03-15T18:33:02.779Z,5.09
2018-03-15T18:37:03.474Z,5.4
2018-03-15T18:43:04.324Z,6.19
2018-03-15T18:47:05.421Z,6.2
2018-03-15T18:53:06.054Z,6.35
2018-03-15T18:57:06.895Z,6.36
2018-03-15T18:59:07.763Z,6.73
2018-03-15T19:03:08.542Z,6.76
2018-03-15T19:09:09.520Z,6.53
2018-03-15T19:13:10.569Z,5.8
2018-03-15T19:19:11.343Z,6.56
2018-03-15T19:23:12.163Z,6.24
2018-03-15T19:25:12.874Z,6.23
2018-03-15T19:29:13.670Z,6.41
2018-03-15T19:35:14.595Z,5.83
2018-03-15T19:39:15.332Z,5.76
2018-03-15T19:45:16.691Z,5.78
2018-03-15T19:49:17.547Z,5.61
2018-03-15T19:51:18.364Z,5.95
2018-03-15T19:55:19.304Z,5.6
2018-03-15T20:01:20.076Z,5.36
2018-03-15T20:05:21.317Z,5.99
2018-03-15T20:11:22.812Z,7.34
2018-03-15T20:15:23.760Z,7.16
2018-03-15T20:17:24.708Z,7.3
2018-03-15T20:21:25.560Z,7.23
2018-03-15T20:27:26.451Z,7.03
2018-03-15T20:31:27.202Z,7.81
2018-03-15T20:37:28.646Z,7.06
2018-03-15T20:41:29.572Z,7.44
2018-03-15T20:43:30.771Z,8.01
2018-03-15T20:47:31.867Z,7.8
2018-03-15T20:53:33.117Z,7.47
2018-03-15T20:57:33.856Z,6.81
2018-03-15T21:03:34.674Z,4.89
2018-03-15T21:07:35.596Z,4.37
2018-03-15T21:09:36.294Z,3.73
2018-03-15T21:13:37.095Z,3.23
2018-03-15T21:19:37.952Z,2.79
2018-03-15T21:23:39.803Z,2.54
2018-03-15T21:29:40.611Z,2.65
2018-03-15T21:33:41.432Z,2.21
2018-03-15T21:39:42.234Z,1.98
2018-03-15T21:45:43.016Z,2.38
2018-03-15T21:49:43.952Z,2.2
2018-03-15T21:55:44.733Z,2.46
2018-03-15T21:59:45.463Z,2.16
2018-03-15T22:01:46.278Z,2.18
2018-03-15T22:05:47.060Z,2.18
2018-03-15T22:11:47.840Z,2.29
2018-03-15T22:15:48.668Z,1.96
2018-03-15T22:21:49.577Z,1.9
2018-03-15T22:25:50.468Z,1.76
2018-03-15T22:27:51.372Z,2.34
2018-03-15T22:31:52.503Z,1.81
2018-03-15T22:37:53.264Z,2.11
2018-03-15T22:41:54.113Z,1.66
2018-03-15T22:47:54.907Z,2.02
2018-03-15T22:51:55.689Z,1.99
2018-03-15T22:57:56.753Z,2.15
2018-03-15T23:03:57.565Z,2.41
2018-03-15T23:07:58.248Z,2.19
2018-03-15T23:13:59.030Z,1.61
2018-03-15T23:18:01.052Z,1.27
2018-03-15T23:24:01.850Z,1.51
2018-03-15T23:30:02.785Z,2.05
2018-03-15T23:34:03.523Z,2.02
2018-03-15T23:40:04.390Z,1.94
2018-03-15T23:44:05.124Z,2.09
2018-03-15T23:46:05.866Z,4.32
2018-03-15T23:50:06.620Z,4.7
2018-03-15T23:56:07.499Z,6.49
